createdAt,value
2022-11-17T00:00:46.752Z,13.00
2022-11-17T00:01:46.702Z,10.20
2022-11-17T00:02:46.828Z,9.70
2022-11-17T00:03:46.685Z,9.50
2022-11-17T00:04:46.679Z,11.00
2022-11-17T00:05:46.674Z,10.70
2022-11-17T00:06:46.651Z,10.00
2022-11-17T00:07:46.615Z,9.80
2022-11-17T00:08:46.635Z,10.40
2022-11-17T00:09:46.638Z,10.60
2022-11-17T00:10:46.626Z,10.10
2022-11-17T00:11:46.603Z,15.00
2022-11-17T00:12:46.578Z,13.10
2022-11-17T00:13:46.602Z,10.20
2022-11-17T00:14:46.550Z,10.10
2022-11-17T00:15:46.541Z,10.50
2022-11-17T00:16:46.502Z,10.40
2022-11-17T00:17:46.515Z,11.30
2022-11-17T00:18:46.493Z,11.00
2022-11-17T00:19:46.482Z,12.40
2022-11-17T00:20:46.464Z,11.60
2022-11-17T00:21:46.457Z,11.10
2022-11-17T00:22:46.436Z,11.80
2022-11-17T00:23:46.430Z,11.50
2022-11-17T00:24:46.402Z,11.40
2022-11-17T00:25:46.396Z,10.50
2022-11-17T00:26:46.406Z,11.70
2022-11-17T00:27:46.391Z,11.70
2022-11-17T00:28:46.363Z,11.00
2022-11-17T00:29:46.344Z,13.90
2022-11-17T00:30:46.319Z,11.70
2022-11-17T00:31:46.356Z,12.00
2022-11-17T00:32:46.313Z,10.90
2022-11-17T00:33:46.290Z,11.20
2022-11-17T00:34:46.306Z,11.70
2022-11-17T00:35:46.272Z,10.80
2022-11-17T00:36:46.268Z,12.10
2022-11-17T00:37:46.256Z,11.80
2022-11-17T00:38:46.236Z,11.20
2022-11-17T00:39:46.229Z,10.70
2022-11-17T00:40:46.188Z,11.10
2022-11-17T00:41:46.217Z,10.10
2022-11-17T00:42:46.199Z,10.30
2022-11-17T00:43:46.170Z,10.70
2022-11-17T00:44:46.149Z,11.60
2022-11-17T00:45:46.125Z,10.90
2022-11-17T00:46:46.149Z,11.10
2022-11-17T00:47:46.124Z,10.90
2022-11-17T00:48:46.098Z,14.30
2022-11-17T00:49:46.120Z,11.50
2022-11-17T00:50:46.086Z,10.80
2022-11-17T00:51:46.077Z,11.20
2022-11-17T00:52:46.062Z,12.80
2022-11-17T00:53:46.036Z,11.00
2022-11-17T00:54:46.041Z,10.20
2022-11-17T00:55:46.080Z,12.40
2022-11-17T00:56:45.979Z,12.00
2022-11-17T00:57:45.986Z,11.70
2022-11-17T00:58:45.952Z,14.00
2022-11-17T00:59:45.975Z,10.30
2022-11-17T01:00:45.941Z,11.50
2022-11-17T01:01:46.021Z,10.80
2022-11-17T01:02:45.920Z,10.30
2022-11-17T01:03:45.896Z,10.00
2022-11-17T01:04:45.894Z,12.70
2022-11-17T01:05:45.899Z,10.80
2022-11-17T01:06:45.850Z,9.70
2022-11-17T01:07:45.861Z,10.00
2022-11-17T01:08:45.873Z,12.70
2022-11-17T01:09:45.815Z,10.70
2022-11-17T01:10:45.796Z,10.20
2022-11-17T01:11:45.811Z,10.20
2022-11-17T01:12:45.805Z,12.60
2022-11-17T01:13:45.814Z,9.70
2022-11-17T01:14:45.779Z,10.40
2022-11-17T01:15:45.781Z,9.70
2022-11-17T01:16:45.751Z,13.00
2022-11-17T01:17:45.732Z,10.10
2022-11-17T01:18:45.725Z,13.00
2022-11-17T01:19:45.716Z,11.30
2022-11-17T01:20:45.681Z,10.80
2022-11-17T01:21:45.663Z,9.50
2022-11-17T01:22:45.673Z,12.20
2022-11-17T01:23:45.657Z,9.60
2022-11-17T01:24:45.622Z,10.40
2022-11-17T01:25:45.620Z,12.00
2022-11-17T01:26:45.622Z,10.20
2022-11-17T01:27:45.621Z,10.60
2022-11-17T01:28:45.599Z,10.20
2022-11-17T01:29:45.568Z,10.90
2022-11-17T01:30:45.535Z,9.10
2022-11-17T01:31:45.570Z,9.40
2022-11-17T01:32:45.638Z,11.50
2022-11-17T01:33:45.519Z,9.40
2022-11-17T01:34:45.485Z,11.40
2022-11-17T01:35:45.517Z,11.10
2022-11-17T01:36:45.479Z,11.60
2022-11-17T01:37:45.505Z,9.60
2022-11-17T01:38:45.435Z,9.60
2022-11-17T01:39:45.449Z,11.90
2022-11-17T01:40:45.453Z,10.30
2022-11-17T01:41:45.419Z,10.50
2022-11-17T01:42:45.412Z,9.50
2022-11-17T01:43:45.391Z,10.70
2022-11-17T01:44:45.388Z,9.50
2022-11-17T01:45:45.346Z,9.40
2022-11-17T01:46:45.348Z,9.70
2022-11-17T01:47:45.396Z,9.70
2022-11-17T01:48:45.334Z,8.70
2022-11-17T01:49:45.362Z,10.80
2022-11-17T01:50:45.298Z,12.10
2022-11-17T01:51:45.297Z,9.90
2022-11-17T01:52:45.304Z,8.90
2022-11-17T01:53:45.300Z,13.30
2022-11-17T01:54:45.258Z,13.30
2022-11-17T01:55:45.225Z,14.80
2022-11-17T01:56:45.209Z,9.80
2022-11-17T01:57:45.192Z,10.80
2022-11-17T01:58:45.218Z,9.50
2022-11-17T01:59:45.217Z,9.80
2022-11-17T02:00:45.177Z,8.70
2022-11-17T02:01:45.203Z,8.70
2022-11-17T02:02:45.146Z,10.00
2022-11-17T02:03:45.131Z,8.30
2022-11-17T02:04:45.130Z,9.30
2022-11-17T02:05:45.133Z,10.90
2022-11-17T02:06:45.087Z,10.00
2022-11-17T02:07:45.071Z,10.50
2022-11-17T02:08:45.090Z,9.10
2022-11-17T02:09:45.087Z,9.70
2022-11-17T02:10:51.273Z,9.10
2022-11-17T02:11:45.033Z,9.20
2022-11-17T02:12:44.999Z,8.10
2022-11-17T02:13:45.012Z,9.20
2022-11-17T02:14:45.009Z,12.00
2022-11-17T02:15:44.976Z,10.60
2022-11-17T02:16:44.942Z,10.70
2022-11-17T02:17:44.951Z,8.60
2022-11-17T02:18:44.925Z,8.20
2022-11-17T02:19:44.906Z,8.50
2022-11-17T02:20:44.946Z,8.40
2022-11-17T02:21:44.904Z,8.20
2022-11-17T02:22:44.890Z,8.30
2022-11-17T02:23:44.903Z,8.80
2022-11-17T02:24:44.857Z,8.70
2022-11-17T02:25:44.844Z,8.20
2022-11-17T02:26:44.823Z,9.40
2022-11-17T02:27:44.809Z,8.70
2022-11-17T02:28:44.806Z,8.50
2022-11-17T02:29:44.819Z,7.80
2022-11-17T02:30:44.777Z,9.10
2022-11-17T02:31:44.768Z,9.50
2022-11-17T02:32:44.756Z,7.80
2022-11-17T02:33:44.747Z,9.60
2022-11-17T02:34:44.753Z,8.60
2022-11-17T02:35:44.749Z,9.20
2022-11-17T02:36:44.722Z,8.00
2022-11-17T02:37:44.700Z,9.30
2022-11-17T02:38:44.693Z,11.50
2022-11-17T02:39:44.665Z,9.90
2022-11-17T02:40:44.662Z,8.70
2022-11-17T02:41:44.644Z,10.50
2022-11-17T02:42:44.633Z,6.60
2022-11-17T02:43:44.630Z,8.00
2022-11-17T02:44:44.633Z,8.20
2022-11-17T02:45:44.612Z,10.90
2022-11-17T02:46:44.578Z,9.40
2022-11-17T02:47:44.579Z,9.60
2022-11-17T02:48:44.568Z,10.80
2022-11-17T02:49:44.548Z,8.80
2022-11-17T02:50:44.516Z,11.20
2022-11-17T02:51:44.526Z,9.70
2022-11-17T02:52:44.487Z,10.40
2022-11-17T02:53:44.472Z,9.20
2022-11-17T02:54:44.473Z,8.70
2022-11-17T02:55:44.457Z,10.60
2022-11-17T02:56:44.466Z,9.20
2022-11-17T02:57:44.469Z,9.10
2022-11-17T02:58:44.419Z,8.00
2022-11-17T02:59:44.405Z,9.80
2022-11-17T03:00:44.408Z,9.70
2022-11-17T03:01:44.488Z,10.00
2022-11-17T03:02:44.371Z,9.60
2022-11-17T03:03:44.349Z,9.70
2022-11-17T03:04:44.378Z,9.60
2022-11-17T03:05:44.326Z,10.00
2022-11-17T03:06:44.336Z,11.60
2022-11-17T03:07:44.292Z,10.90
2022-11-17T03:08:44.276Z,9.80
2022-11-17T03:09:44.310Z,9.20
2022-11-17T03:10:44.259Z,10.60
2022-11-17T03:11:44.230Z,10.10
2022-11-17T03:12:44.242Z,10.00
2022-11-17T03:13:44.224Z,11.90
2022-11-17T03:14:44.228Z,10.50
2022-11-17T03:15:44.210Z,9.90
2022-11-17T03:16:44.184Z,11.70
2022-11-17T03:17:44.178Z,10.50
2022-11-17T03:18:44.146Z,12.30
2022-11-17T03:19:44.135Z,11.70
2022-11-17T03:20:44.161Z,10.30
2022-11-17T03:21:44.118Z,9.80
2022-11-17T03:22:44.126Z,10.30
2022-11-17T03:23:44.091Z,10.60
2022-11-17T03:24:44.083Z,9.90
2022-11-17T03:25:44.070Z,11.00
2022-11-17T03:26:44.070Z,11.80
2022-11-17T03:27:44.071Z,9.50
2022-11-17T03:28:44.035Z,10.60
2022-11-17T03:29:44.017Z,9.70
2022-11-17T03:30:44.014Z,10.40
2022-11-17T03:31:43.994Z,10.60
2022-11-17T03:32:43.974Z,12.40
2022-11-17T03:33:43.975Z,10.30
2022-11-17T03:34:43.962Z,10.40
2022-11-17T03:35:49.295Z,11.50
2022-11-17T03:36:43.944Z,11.90
2022-11-17T03:37:43.943Z,11.70
2022-11-17T03:38:43.923Z,11.90
2022-11-17T03:39:43.893Z,9.60
2022-11-17T03:40:43.856Z,11.60
2022-11-17T03:41:43.859Z,10.60
2022-11-17T03:42:43.863Z,10.30
2022-11-17T03:43:43.827Z,10.30
2022-11-17T03:44:43.824Z,9.60
2022-11-17T03:45:43.793Z,10.20
2022-11-17T03:46:43.791Z,10.80
2022-11-17T03:47:43.813Z,12.00
2022-11-17T03:48:43.770Z,11.50
2022-11-17T03:49:43.769Z,12.20
2022-11-17T03:50:43.761Z,10.40
2022-11-17T03:51:43.725Z,10.50
2022-11-17T03:52:43.767Z,11.40
2022-11-17T03:53:43.694Z,10.70
2022-11-17T03:54:43.714Z,10.00
2022-11-17T03:55:43.659Z,12.30
2022-11-17T03:56:43.680Z,12.20
2022-11-17T03:57:43.642Z,10.30
2022-11-17T03:58:43.648Z,12.30
2022-11-17T03:59:43.657Z,12.00
2022-11-17T04:00:43.623Z,10.10
2022-11-17T04:01:43.662Z,11.70
2022-11-17T04:02:43.594Z,11.00
2022-11-17T04:03:43.570Z,11.20
2022-11-17T04:04:43.549Z,10.20
2022-11-17T04:05:43.564Z,10.90
2022-11-17T04:06:43.533Z,12.10
2022-11-17T04:07:43.509Z,11.40
2022-11-17T04:08:43.535Z,11.90
2022-11-17T04:09:43.501Z,9.70
2022-11-17T04:10:43.486Z,11.30
2022-11-17T04:11:43.488Z,10.40
2022-11-17T04:12:43.470Z,11.90
2022-11-17T04:13:43.443Z,10.40
2022-11-17T04:14:43.437Z,10.50
2022-11-17T04:15:43.444Z,10.80
2022-11-17T04:16:43.415Z,11.00
2022-11-17T04:17:43.390Z,10.90
2022-11-17T04:18:43.386Z,11.70
2022-11-17T04:19:43.355Z,12.00
2022-11-17T04:20:43.350Z,11.10
2022-11-17T04:21:43.351Z,11.20
2022-11-17T04:22:43.338Z,10.10
2022-11-17T04:23:43.318Z,11.80
2022-11-17T04:24:43.322Z,14.10
2022-11-17T04:25:43.308Z,13.40
2022-11-17T04:26:43.276Z,11.70
2022-11-17T04:27:43.247Z,12.10
2022-11-17T04:28:43.242Z,12.90
2022-11-17T04:29:43.217Z,12.20
2022-11-17T04:30:43.241Z,11.40
2022-11-17T04:31:43.215Z,12.10
2022-11-17T04:32:43.207Z,12.60
2022-11-17T04:33:43.190Z,11.80
2022-11-17T04:34:43.202Z,12.10
2022-11-17T04:35:43.155Z,11.30
2022-11-17T04:36:43.155Z,11.40
2022-11-17T04:37:43.125Z,12.70
2022-11-17T04:38:43.112Z,12.70
2022-11-17T04:39:43.101Z,12.40
2022-11-17T04:40:43.157Z,11.50
2022-11-17T04:41:43.083Z,12.70
2022-11-17T04:42:43.074Z,12.40
2022-11-17T04:43:43.108Z,11.80
2022-11-17T04:44:43.058Z,11.80
2022-11-17T04:45:43.024Z,12.90
2022-11-17T04:46:43.021Z,12.00
2022-11-17T04:47:43.026Z,12.30
2022-11-17T04:48:43.015Z,12.20
2022-11-17T04:49:42.985Z,12.30
2022-11-17T04:50:42.953Z,13.00
2022-11-17T04:51:42.958Z,12.90
2022-11-17T04:52:42.938Z,12.80
2022-11-17T04:53:42.932Z,12.10
2022-11-17T04:54:42.932Z,13.60
2022-11-17T04:55:42.921Z,11.70
2022-11-17T04:56:42.919Z,12.10
2022-11-17T04:57:42.869Z,12.00
2022-11-17T04:58:42.859Z,11.40
2022-11-17T04:59:42.863Z,16.70
2022-11-17T05:00:42.877Z,14.10
2022-11-17T05:01:42.895Z,18.60
2022-11-17T05:02:42.866Z,12.40
2022-11-17T05:03:42.795Z,14.20
2022-11-17T05:04:42.792Z,14.40
2022-11-17T05:05:42.755Z,12.20
2022-11-17T05:06:42.751Z,13.80
2022-11-17T05:07:42.727Z,13.70
2022-11-17T05:08:42.744Z,12.90
2022-11-17T05:09:42.728Z,13.20
2022-11-17T05:10:42.793Z,13.20
2022-11-17T05:11:42.696Z,18.00
2022-11-17T05:12:42.693Z,19.80
2022-11-17T05:13:42.658Z,12.70
2022-11-17T05:14:42.658Z,14.30
2022-11-17T05:15:42.654Z,15.20
2022-11-17T05:16:42.656Z,14.20
2022-11-17T05:17:42.651Z,15.50
2022-11-17T05:18:42.632Z,13.50
2022-11-17T05:19:42.571Z,12.60
2022-11-17T05:20:42.602Z,12.90
2022-11-17T05:21:42.592Z,12.80
2022-11-17T05:22:42.573Z,12.60
2022-11-17T05:23:42.559Z,12.00
2022-11-17T05:24:42.532Z,12.50
2022-11-17T05:25:42.537Z,13.00
2022-11-17T05:26:42.487Z,13.00
2022-11-17T05:27:42.499Z,13.10
2022-11-17T05:28:42.465Z,12.10
2022-11-17T05:29:42.471Z,13.20
2022-11-17T05:30:42.453Z,12.90
2022-11-17T05:31:42.419Z,12.30
2022-11-17T05:32:42.430Z,14.70
2022-11-17T05:33:42.760Z,13.50
2022-11-17T05:34:42.435Z,12.90
2022-11-17T05:35:42.404Z,14.60
2022-11-17T05:36:42.383Z,15.60
2022-11-17T05:37:42.346Z,16.00
2022-11-17T05:38:42.348Z,13.50
2022-11-17T05:39:42.339Z,13.40
2022-11-17T05:40:42.327Z,12.60
2022-11-17T05:41:42.287Z,13.80
2022-11-17T05:42:42.284Z,13.80
2022-11-17T05:43:42.276Z,14.70
2022-11-17T05:44:42.293Z,12.10
2022-11-17T05:45:42.272Z,12.30
2022-11-17T05:46:42.268Z,13.20
2022-11-17T05:47:42.254Z,13.60
2022-11-17T05:48:42.228Z,12.50
2022-11-17T05:49:42.246Z,14.00
2022-11-17T05:50:42.215Z,12.00
2022-11-17T05:51:42.206Z,12.10
2022-11-17T05:52:42.150Z,13.30
2022-11-17T05:53:42.148Z,12.60
2022-11-17T05:54:42.135Z,11.80
2022-11-17T05:55:42.112Z,11.60
2022-11-17T05:56:42.162Z,13.10
2022-11-17T05:57:42.096Z,12.60
2022-11-17T05:58:42.073Z,12.30
2022-11-17T05:59:42.089Z,12.20
2022-11-17T06:00:42.097Z,11.50
2022-11-17T06:01:42.072Z,13.80
2022-11-17T06:02:42.037Z,13.20
2022-11-17T06:03:42.044Z,11.30
2022-11-17T06:04:42.046Z,12.50
2022-11-17T06:05:42.002Z,12.00
2022-11-17T06:06:41.990Z,11.70
2022-11-17T06:07:41.994Z,13.80
2022-11-17T06:08:41.956Z,11.70
2022-11-17T06:09:41.934Z,11.40
2022-11-17T06:10:41.937Z,12.00
2022-11-17T06:11:41.921Z,11.70
2022-11-17T06:12:41.918Z,11.30
2022-11-17T06:13:41.884Z,12.10
2022-11-17T06:14:41.895Z,13.00
2022-11-17T06:15:41.889Z,10.70
2022-11-17T06:16:41.856Z,11.10
2022-11-17T06:17:41.862Z,12.50
2022-11-17T06:18:41.881Z,11.70
2022-11-17T06:19:41.815Z,11.10
2022-11-17T06:20:41.829Z,11.80
2022-11-17T06:22:09.772Z,12.00
2022-11-17T06:22:46.993Z,11.30
2022-11-17T06:23:41.775Z,11.10
2022-11-17T06:24:41.772Z,11.10
2022-11-17T06:25:41.767Z,13.50
2022-11-17T06:26:41.714Z,10.80
2022-11-17T06:27:41.747Z,11.30
2022-11-17T06:28:41.737Z,10.60
2022-11-17T06:29:44.686Z,11.40
2022-11-17T06:30:41.876Z,10.90
2022-11-17T06:31:41.645Z,10.70
2022-11-17T06:32:41.674Z,10.30
2022-11-17T06:33:41.619Z,10.90
2022-11-17T06:34:41.658Z,12.90
2022-11-17T06:35:41.605Z,11.40
2022-11-17T06:36:41.582Z,9.50
2022-11-17T06:37:41.579Z,10.30
2022-11-17T06:38:41.579Z,10.70
2022-11-17T06:39:41.569Z,10.20
2022-11-17T06:40:41.538Z,10.50
2022-11-17T06:41:41.541Z,16.30
2022-11-17T06:42:41.564Z,10.80
2022-11-17T06:43:41.499Z,10.20
2022-11-17T06:44:41.483Z,9.60
2022-11-17T06:45:41.468Z,10.00
2022-11-17T06:46:46.118Z,11.60
2022-11-17T06:47:41.450Z,11.40
2022-11-17T06:48:41.455Z,12.50
2022-11-17T06:49:41.428Z,10.00
2022-11-17T06:50:41.461Z,11.80
2022-11-17T06:51:45.151Z,10.40
2022-11-17T06:52:41.428Z,9.50
2022-11-17T06:53:41.387Z,9.80
2022-11-17T06:54:41.415Z,9.50
2022-11-17T06:55:41.366Z,10.10
2022-11-17T06:56:41.363Z,10.50
2022-11-17T06:57:41.388Z,9.80
2022-11-17T06:58:41.360Z,12.30
2022-11-17T06:59:41.354Z,11.00
2022-11-17T07:00:41.410Z,10.00
2022-11-17T07:01:41.310Z,10.30
2022-11-17T07:02:41.397Z,10.20
2022-11-17T07:03:41.291Z,10.60
2022-11-17T07:04:41.420Z,10.00
2022-11-17T07:05:41.269Z,10.70
2022-11-17T07:06:41.247Z,9.90
2022-11-17T07:07:41.342Z,10.40
2022-11-17T07:08:41.232Z,10.50
2022-11-17T07:09:41.212Z,8.90
2022-11-17T07:10:45.053Z,11.10
2022-11-17T07:11:41.177Z,10.40
2022-11-17T07:12:41.189Z,10.70
2022-11-17T07:13:41.159Z,10.30
2022-11-17T07:14:41.155Z,11.70
2022-11-17T07:15:41.152Z,10.60
2022-11-17T07:16:41.113Z,12.80
2022-11-17T07:17:41.160Z,9.40
2022-11-17T07:18:41.090Z,9.80
2022-11-17T07:19:41.116Z,10.40
2022-11-17T07:20:41.077Z,9.60
2022-11-17T07:21:41.045Z,9.90
2022-11-17T07:22:41.029Z,11.50
2022-11-17T07:23:41.011Z,9.60
2022-11-17T07:24:41.013Z,9.80
2022-11-17T07:25:40.987Z,12.00
2022-11-17T07:26:40.971Z,9.70
2022-11-17T07:27:40.976Z,14.60
2022-11-17T07:28:40.938Z,10.30
2022-11-17T07:29:40.958Z,10.20
2022-11-17T07:30:40.923Z,9.80
2022-11-17T07:31:40.928Z,11.30
2022-11-17T07:32:40.882Z,11.00
2022-11-17T07:33:40.884Z,10.90
2022-11-17T07:34:40.863Z,10.20
2022-11-17T07:35:40.866Z,12.60
2022-11-17T07:36:40.838Z,10.30
2022-11-17T07:37:40.820Z,11.40
2022-11-17T07:38:40.935Z,9.80
2022-11-17T07:39:40.810Z,10.00
2022-11-17T07:40:40.800Z,8.30
2022-11-17T07:41:40.766Z,11.70
2022-11-17T07:42:40.773Z,9.30
2022-11-17T07:43:40.758Z,13.60
2022-11-17T07:44:40.743Z,11.30
2022-11-17T07:45:40.742Z,10.10
2022-11-17T07:46:40.726Z,8.50
2022-11-17T07:47:40.736Z,10.80
2022-11-17T07:48:40.683Z,9.50
2022-11-17T07:49:40.704Z,9.60
2022-11-17T07:50:40.646Z,11.20
2022-11-17T07:51:40.666Z,10.00
2022-11-17T07:52:41.702Z,10.30
2022-11-17T07:53:40.641Z,9.10
2022-11-17T07:54:40.631Z,10.80
2022-11-17T07:55:40.613Z,9.50
2022-11-17T07:56:40.611Z,10.30
2022-11-17T07:57:40.579Z,9.20
2022-11-17T07:58:40.633Z,8.90
2022-11-17T07:59:40.584Z,9.00
2022-11-17T08:00:40.609Z,11.30
2022-11-17T08:01:40.509Z,9.70
2022-11-17T08:02:40.516Z,10.10
2022-11-17T08:03:40.564Z,9.30
2022-11-17T08:04:40.530Z,9.10
2022-11-17T08:05:43.572Z,8.80
2022-11-17T08:06:40.486Z,9.60
2022-11-17T08:07:40.510Z,10.60
2022-11-17T08:08:40.655Z,11.70
2022-11-17T08:09:40.469Z,9.70
2022-11-17T08:10:40.406Z,11.20
2022-11-17T08:11:40.397Z,10.20
2022-11-17T08:12:40.380Z,10.50
2022-11-17T08:13:40.389Z,8.80
2022-11-17T08:14:40.363Z,11.10
2022-11-17T08:15:40.416Z,9.60
2022-11-17T08:16:40.370Z,9.60
2022-11-17T08:17:40.343Z,11.60
2022-11-17T08:18:40.563Z,10.50
2022-11-17T08:19:40.294Z,12.10
2022-11-17T08:20:40.312Z,10.70
2022-11-17T08:21:40.311Z,13.50
2022-11-17T08:22:40.313Z,11.20
2022-11-17T08:23:40.252Z,9.50
2022-11-17T08:24:40.234Z,11.80
2022-11-17T08:25:40.240Z,9.80
2022-11-17T08:26:40.204Z,10.80
2022-11-17T08:27:40.193Z,10.30
2022-11-17T08:28:40.505Z,10.50
2022-11-17T08:29:40.147Z,11.10
2022-11-17T08:30:40.127Z,10.90
2022-11-17T08:31:40.130Z,10.20
2022-11-17T08:32:40.127Z,10.00
2022-11-17T08:33:40.095Z,10.70
2022-11-17T08:34:40.073Z,10.70
2022-11-17T08:35:40.123Z,11.00
2022-11-17T08:36:40.108Z,10.20
2022-11-17T08:37:40.040Z,15.40
2022-11-17T08:38:40.165Z,12.40
2022-11-17T08:39:40.042Z,11.50
2022-11-17T08:40:39.993Z,12.10
2022-11-17T08:41:40.005Z,11.70
2022-11-17T08:42:40.021Z,9.40
2022-11-17T08:43:40.010Z,13.10
2022-11-17T08:44:39.966Z,14.30
2022-11-17T08:45:39.997Z,9.80
2022-11-17T08:46:39.940Z,11.00
2022-11-17T08:47:39.933Z,11.20
2022-11-17T08:48:39.992Z,11.10
2022-11-17T08:49:39.951Z,13.00
2022-11-17T08:50:39.879Z,10.90
2022-11-17T08:51:39.873Z,12.30
2022-11-17T08:52:39.887Z,11.60
2022-11-17T08:53:39.856Z,11.20
2022-11-17T08:54:39.887Z,11.80
2022-11-17T08:55:41.418Z,13.90
2022-11-17T08:56:39.824Z,11.10
2022-11-17T08:57:39.820Z,12.80
2022-11-17T08:58:39.782Z,14.80
2022-11-17T08:59:39.777Z,11.60
2022-11-17T09:00:39.811Z,11.90
2022-11-17T09:01:39.796Z,12.60
2022-11-17T09:02:39.738Z,14.30
2022-11-17T09:03:39.718Z,13.00
2022-11-17T09:04:39.749Z,12.70
2022-11-17T09:05:39.688Z,12.40
2022-11-17T09:06:39.705Z,12.90
2022-11-17T09:07:39.714Z,11.20
2022-11-17T09:08:47.569Z,12.00
2022-11-17T09:09:39.754Z,14.30
2022-11-17T09:10:39.601Z,11.30
2022-11-17T09:11:39.592Z,13.20
2022-11-17T09:12:39.582Z,12.50
2022-11-17T09:13:39.548Z,13.00
2022-11-17T09:14:39.552Z,14.20
2022-11-17T09:15:39.558Z,14.80
2022-11-17T09:16:39.517Z,12.50
2022-11-17T09:17:39.508Z,14.00
2022-11-17T09:18:40.098Z,13.50
2022-11-17T09:19:39.510Z,12.50
2022-11-17T09:20:45.315Z,13.60
2022-11-17T09:21:39.475Z,14.40
2022-11-17T09:22:39.447Z,13.80
2022-11-17T09:23:39.754Z,15.10
2022-11-17T09:24:39.408Z,15.10
2022-11-17T09:25:39.405Z,15.20
2022-11-17T09:26:39.402Z,14.70
2022-11-17T09:27:39.412Z,14.90
2022-11-17T09:28:39.824Z,14.40
2022-11-17T09:29:39.344Z,16.90
2022-11-17T09:30:39.351Z,15.30
2022-11-17T09:31:39.381Z,17.50
2022-11-17T09:32:39.315Z,15.40
2022-11-17T09:33:39.335Z,14.70
2022-11-17T09:34:39.348Z,15.70
2022-11-17T09:35:39.265Z,16.80
2022-11-17T09:36:39.253Z,16.50
2022-11-17T09:37:39.290Z,15.50
2022-11-17T09:38:39.816Z,16.10
2022-11-17T09:39:39.207Z,18.90
2022-11-17T09:40:39.259Z,18.10
2022-11-17T09:41:39.214Z,16.20
2022-11-17T09:42:39.168Z,15.60
2022-11-17T09:43:39.206Z,16.00
2022-11-17T09:44:39.162Z,16.00
2022-11-17T09:45:39.149Z,15.10
2022-11-17T09:46:39.153Z,17.90
2022-11-17T09:47:39.102Z,15.80
2022-11-17T09:48:45.732Z,14.60
2022-11-17T09:49:39.119Z,17.10
2022-11-17T09:50:39.091Z,17.60
2022-11-17T09:51:39.097Z,15.30
2022-11-17T09:52:39.078Z,17.50
2022-11-17T09:53:39.031Z,19.00
2022-11-17T09:54:39.038Z,16.50
2022-11-17T09:55:39.053Z,16.30
2022-11-17T09:56:38.982Z,20.40
2022-11-17T09:57:38.981Z,15.90
2022-11-17T09:58:39.387Z,15.80
2022-11-17T09:59:38.992Z,17.80
2022-11-17T10:00:38.955Z,19.80
2022-11-17T10:01:38.950Z,16.80
2022-11-17T10:02:39.003Z,16.90
2022-11-17T10:03:45.274Z,20.10
2022-11-17T10:04:38.899Z,16.10
2022-11-17T10:05:38.950Z,15.70
2022-11-17T10:06:38.867Z,17.00
2022-11-17T10:07:38.876Z,17.70
2022-11-17T10:08:38.830Z,19.00
2022-11-17T10:09:38.872Z,15.80
2022-11-17T10:10:38.824Z,14.60
2022-11-17T10:11:38.795Z,16.60
2022-11-17T10:12:38.788Z,16.90
2022-11-17T10:13:39.027Z,16.70
2022-11-17T10:14:38.748Z,17.90
2022-11-17T10:15:38.760Z,17.00
2022-11-17T10:16:38.768Z,19.30
2022-11-17T10:17:38.741Z,22.40
2022-11-17T10:18:38.729Z,20.70
2022-11-17T10:19:38.713Z,18.50
2022-11-17T10:20:38.670Z,17.70
2022-11-17T10:21:38.673Z,19.70
2022-11-17T10:22:38.652Z,16.10
2022-11-17T10:23:44.473Z,16.00
2022-11-17T10:24:38.635Z,17.60
2022-11-17T10:25:38.631Z,19.00
2022-11-17T10:26:38.613Z,17.20
2022-11-17T10:27:38.594Z,13.40
2022-11-17T10:28:38.586Z,16.50
2022-11-17T10:29:38.552Z,17.70
2022-11-17T10:30:38.546Z,17.00
2022-11-17T10:31:38.540Z,17.20
2022-11-17T10:32:39.932Z,17.20
2022-11-17T10:33:38.912Z,15.70
2022-11-17T10:34:41.322Z,23.60
2022-11-17T10:35:38.477Z,15.20
2022-11-17T10:36:38.514Z,16.10
2022-11-17T10:37:38.445Z,18.20
2022-11-17T10:38:38.455Z,15.40
2022-11-17T10:39:38.454Z,14.60
2022-11-17T10:40:38.433Z,16.20
2022-11-17T10:41:38.393Z,16.60
2022-11-17T10:42:38.387Z,15.10
2022-11-17T10:43:38.724Z,16.50
2022-11-17T10:44:38.375Z,14.40
2022-11-17T10:45:38.349Z,14.80
2022-11-17T10:46:46.145Z,13.70
2022-11-17T10:47:38.345Z,14.70
2022-11-17T10:48:38.326Z,14.50
2022-11-17T10:49:38.318Z,13.70
2022-11-17T10:50:38.335Z,16.60
2022-11-17T10:51:38.263Z,14.90
2022-11-17T10:52:38.277Z,15.10
2022-11-17T10:53:45.150Z,14.30
2022-11-17T10:54:38.235Z,15.70
2022-11-17T10:55:38.216Z,13.10
2022-11-17T10:56:38.205Z,14.50
2022-11-17T10:57:38.205Z,13.40
2022-11-17T10:58:38.199Z,13.40
2022-11-17T10:59:38.193Z,15.30
2022-11-17T11:00:38.161Z,13.80
2022-11-17T11:01:38.203Z,20.60
2022-11-17T11:02:38.131Z,13.80
2022-11-17T11:03:38.381Z,13.70
2022-11-17T11:04:38.094Z,14.50
2022-11-17T11:05:38.091Z,10.80
2022-11-17T11:06:38.082Z,16.10
2022-11-17T11:07:38.159Z,16.10
2022-11-17T11:08:38.058Z,16.10
2022-11-17T11:09:38.028Z,16.10
2022-11-17T11:10:38.045Z,18.10
2022-11-17T11:11:38.036Z,15.70
2022-11-17T11:12:38.022Z,15.70
2022-11-17T11:13:37.982Z,14.20
2022-11-17T11:14:37.975Z,13.10
2022-11-17T11:15:38.002Z,13.90
2022-11-17T11:16:37.971Z,14.20
2022-11-17T11:17:37.956Z,14.90
2022-11-17T11:18:37.936Z,13.10
2022-11-17T11:19:37.908Z,13.40
2022-11-17T11:20:37.902Z,12.40
2022-11-17T11:21:37.893Z,12.50
2022-11-17T11:22:37.880Z,13.20
2022-11-17T11:23:37.843Z,12.70
2022-11-17T11:24:37.875Z,12.80
2022-11-17T11:25:37.880Z,12.40
2022-11-17T11:26:37.869Z,15.00
2022-11-17T11:27:37.793Z,13.80
2022-11-17T11:28:41.269Z,10.60
2022-11-17T11:29:37.793Z,13.10
2022-11-17T11:30:37.789Z,12.80
2022-11-17T11:31:37.742Z,12.20
2022-11-17T11:32:37.751Z,13.20
2022-11-17T11:33:37.746Z,12.00
2022-11-17T11:34:37.724Z,13.90
2022-11-17T11:35:37.707Z,12.90
2022-11-17T11:36:37.693Z,15.60
2022-11-17T11:37:37.688Z,10.90
2022-11-17T11:38:37.671Z,12.20
2022-11-17T11:39:37.664Z,11.10
2022-11-17T11:40:37.651Z,13.00
2022-11-17T11:41:37.619Z,13.70
2022-11-17T11:42:37.599Z,12.70
2022-11-17T11:43:37.625Z,13.10
2022-11-17T11:44:37.572Z,13.40
2022-11-17T11:45:37.594Z,11.90
2022-11-17T11:46:37.549Z,12.80
2022-11-17T11:47:37.532Z,13.70
2022-11-17T11:48:37.541Z,14.00
2022-11-17T11:49:37.523Z,12.20
2022-11-17T11:50:41.613Z,12.70
2022-11-17T11:51:37.490Z,11.30
2022-11-17T11:52:37.517Z,11.70
2022-11-17T11:53:37.459Z,12.90
2022-11-17T11:54:40.339Z,12.70
2022-11-17T11:55:37.432Z,14.30
2022-11-17T11:56:37.454Z,14.10
2022-11-17T11:57:37.413Z,12.70
2022-11-17T11:58:37.432Z,12.30
2022-11-17T11:59:37.429Z,13.60
2022-11-17T12:00:37.397Z,11.40
2022-11-17T12:01:37.362Z,10.50
2022-11-17T12:02:37.395Z,12.70
2022-11-17T12:03:37.442Z,11.90
2022-11-17T12:04:37.459Z,13.50
2022-11-17T12:05:37.295Z,12.10
2022-11-17T12:06:37.328Z,12.20
2022-11-17T12:07:37.343Z,12.50
2022-11-17T12:08:37.288Z,12.70
2022-11-17T12:09:37.262Z,10.70
2022-11-17T12:10:37.264Z,12.80
2022-11-17T12:11:37.239Z,12.70
2022-11-17T12:12:37.221Z,11.10
2022-11-17T12:13:41.779Z,14.10
2022-11-17T12:14:37.199Z,11.30
2022-11-17T12:15:37.165Z,10.60
2022-11-17T12:16:37.183Z,11.30
2022-11-17T12:17:37.159Z,12.40
2022-11-17T12:18:37.160Z,11.20
2022-11-17T12:19:37.118Z,11.30
2022-11-17T12:20:37.118Z,11.10
2022-11-17T12:21:37.137Z,9.80
2022-11-17T12:22:37.070Z,11.10
2022-11-17T12:23:37.065Z,11.90
2022-11-17T12:24:37.050Z,12.50
2022-11-17T12:25:37.052Z,11.10
2022-11-17T12:26:37.021Z,11.70
2022-11-17T12:27:37.019Z,9.80
2022-11-17T12:28:37.018Z,12.00
2022-11-17T12:29:36.978Z,14.10
2022-11-17T12:30:36.986Z,11.90
2022-11-17T12:31:36.991Z,11.10
2022-11-17T12:32:37.014Z,11.00
2022-11-17T12:33:36.960Z,12.20
2022-11-17T12:34:36.945Z,11.40
2022-11-17T12:35:36.940Z,11.60
2022-11-17T12:36:36.901Z,12.70
2022-11-17T12:37:36.892Z,10.60
2022-11-17T12:38:36.872Z,9.50
2022-11-17T12:39:36.882Z,10.60
2022-11-17T12:40:36.837Z,10.70
2022-11-17T12:41:36.848Z,10.60
2022-11-17T12:42:36.816Z,11.10
2022-11-17T12:43:36.826Z,10.50
2022-11-17T12:44:36.812Z,9.40
2022-11-17T12:45:41.716Z,11.80
2022-11-17T12:46:36.801Z,10.30
2022-11-17T12:47:36.805Z,11.70
2022-11-17T12:48:36.818Z,8.20
2022-11-17T12:49:36.754Z,11.80
2022-11-17T12:50:36.764Z,11.20
2022-11-17T12:51:36.710Z,9.60
2022-11-17T12:52:36.698Z,10.10
2022-11-17T12:53:36.704Z,11.10
2022-11-17T12:54:36.677Z,11.50
2022-11-17T12:55:36.653Z,13.20
2022-11-17T12:56:36.660Z,9.90